Time;durP1;ratioP1;P1;durP2;ratioP2;P2;SDS_P1;SDS_P2;PMS_P1;PMS_P2;Temp;Humidity;BMP_temperature;BMP_pressure;BME280_temperature;BME280_humidity;BME280_pressure;Samples;Min_cycle;Max_cycle;Signal;HPM_P1;HPM_P2
2021/12/27 00:00:26;;;;;;;;;8.25;5.25;;;;;;;;5035732;28;45418;-69
2021/12/27 00:02:53;;;;;;;;;3.75;3.75;;;;;;;;5030916;28;45726;-69
2021/12/27 00:05:19;;;;;;;;;3.75;2.75;;;;;;;;5035161;28;45442;-69
2021/12/27 00:07:48;;;;;;;;;3.50;3.50;;;;;;;;5039068;28;45506;-68
2021/12/27 00:10:13;;;;;;;;;5.50;4.50;;;;;;;;5037305;28;45588;-69
2021/12/27 00:12:39;;;;;;;;;3.00;3.00;;;;;;;;5039904;28;45345;-69
2021/12/27 00:15:04;;;;;;;;;4.00;3.75;;;;;;;;5045518;28;45393;-69
2021/12/27 00:17:29;;;;;;;;;9.00;5.00;;;;;;;;5040246;28;45476;-69
2021/12/27 00:19:56;;;;;;;;;6.33;4.67;;;;;;;;5041048;28;45377;-69
2021/12/27 00:22:21;;;;;;;;;4.75;4.00;;;;;;;;5036673;28;45493;-69
2021/12/27 00:24:47;;;;;;;;;6.25;3.00;;;;;;;;5039574;28;46060;-69
2021/12/27 00:27:13;;;;;;;;;6.75;3.00;;;;;;;;5040593;28;45287;-69
2021/12/27 00:29:38;;;;;;;;;3.25;3.00;;;;;;;;5042622;28;45593;-69
2021/12/27 00:32:03;;;;;;;;;3.00;3.00;;;;;;;;5041714;28;45460;-69
2021/12/27 00:34:29;;;;;;;;;8.00;4.25;;;;;;;;5050663;28;46084;-69
2021/12/27 00:36:54;;;;;;;;;5.00;3.33;;;;;;;;5051665;28;45289;-69
2021/12/27 00:39:19;;;;;;;;;5.67;4.00;;;;;;;;5040800;28;45522;-69
2021/12/27 00:41:44;;;;;;;;;8.00;5.00;;;;;;;;5041695;28;45305;-69
2021/12/27 00:44:09;;;;;;;;;4.00;4.00;;;;;;;;5040439;28;46481;-69
2021/12/27 00:46:35;;;;;;;;;6.67;3.33;;;;;;;;5034224;28;45464;-69
2021/12/27 00:49:00;;;;;;;;;3.00;2.00;;;;;;;;5034578;28;45776;-69
2021/12/27 00:51:26;;;;;;;;;3.67;3.33;;;;;;;;5034245;28;45501;-69
2021/12/27 00:53:51;;;;;;;;;3.75;3.00;;;;;;;;5034544;28;45760;-69
2021/12/27 00:56:16;;;;;;;;;7.67;3.00;;;;;;;;5033963;28;45572;-69
2021/12/27 00:58:41;;;;;;;;;5.67;4.00;;;;;;;;5034483;28;45391;-69
2021/12/27 01:01:06;;;;;;;;;2.33;2.33;;;;;;;;5034101;28;45322;-69
2021/12/27 01:03:32;;;;;;;;;2.00;2.00;;;;;;;;5035029;28;45607;-68
2021/12/27 01:05:57;;;;;;;;;9.00;3.33;;;;;;;;5034354;28;45463;-68
2021/12/27 01:08:22;;;;;;;;;3.50;3.00;;;;;;;;5034604;28;45294;-68
2021/12/27 01:15:51;;;;;;;;;4.50;3.00;;;;;;;;5035338;28;45349;-68
2021/12/27 01:18:17;;;;;;;;;3.25;3.00;;;;;;;;5033997;28;45513;-68
2021/12/27 01:20:42;;;;;;;;;2.00;2.00;;;;;;;;5033228;28;45291;-69
2021/12/27 01:23:07;;;;;;;;;4.00;2.00;;;;;;;;5033922;28;45419;-68
2021/12/27 01:25:33;;;;;;;;;7.00;2.67;;;;;;;;5016385;28;45548;-68
2021/12/27 01:27:58;;;;;;;;;2.00;2.00;;;;;;;;5033312;28;45210;-68
2021/12/27 01:30:23;;;;;;;;;3.00;3.00;;;;;;;;5034087;28;45776;-68
2021/12/27 01:32:53;;;;;;;;;7.00;2.67;;;;;;;;5033789;28;45455;-69
2021/12/27 01:35:19;;;;;;;;;3.75;3.00;;;;;;;;5034036;28;45386;-69
2021/12/27 01:37:45;;;;;;;;;3.00;3.00;;;;;;;;5033519;28;45543;-69
2021/12/27 01:40:11;;;;;;;;;2.75;2.00;;;;;;;;5034061;28;45402;-69
2021/12/27 01:42:37;;;;;;;;;3.25;2.50;;;;;;;;5034293;28;45562;-69
2021/12/27 01:45:03;;;;;;;;;4.00;3.00;;;;;;;;5033999;28;45383;-69
2021/12/27 01:47:30;;;;;;;;;4.00;3.50;;;;;;;;5032872;28;45470;-69
2021/12/27 01:49:55;;;;;;;;;5.00;4.50;;;;;;;;5033547;28;45457;-68
2021/12/27 01:52:21;;;;;;;;;7.00;3.67;;;;;;;;5033912;28;46647;-68
2021/12/27 01:54:46;;;;;;;;;5.75;3.00;;;;;;;;5030496;28;45449;-69
2021/12/27 01:57:11;;;;;;;;;2.33;1.67;;;;;;;;5032549;28;45500;-69
2021/12/27 01:59:37;;;;;;;;;2.50;2.50;;;;;;;;5019749;28;45488;-69
2021/12/27 02:02:03;;;;;;;;;3.75;2.50;;;;;;;;5033983;28;45327;-69
2021/12/27 02:04:28;;;;;;;;;2.50;2.50;;;;;;;;5036968;28;45356;-68
2021/12/27 02:06:53;;;;;;;;;3.00;2.33;;;;;;;;5023113;28;45738;-69
2021/12/27 02:09:23;;;;;;;;;5.67;2.00;;;;;;;;5037131;28;45477;-69
2021/12/27 02:11:50;;;;;;;;;3.25;3.25;;;;;;;;5036739;28;45685;-68
2021/12/27 02:14:15;;;;;;;;;1.50;1.50;;;;;;;;5022630;28;45965;-69
2021/12/27 02:16:40;;;;;;;;;2.67;2.00;;;;;;;;5036963;28;45562;-68
2021/12/27 02:19:05;;;;;;;;;4.00;3.00;;;;;;;;5036454;28;45612;-69
2021/12/27 02:21:31;;;;;;;;;4.00;3.00;;;;;;;;5037868;28;46530;-69
2021/12/27 02:23:57;;;;;;;;;8.00;2.00;;;;;;;;5036106;28;45425;-69
2021/12/27 02:26:22;;;;;;;;;3.00;2.25;;;;;;;;5036681;28;45450;-68
2021/12/27 02:28:48;;;;;;;;;3.25;1.25;;;;;;;;5036587;28;45410;-68
2021/12/27 02:31:14;;;;;;;;;6.25;4.00;;;;;;;;5036617;28;46756;-69
2021/12/27 02:33:40;;;;;;;;;5.00;4.00;;;;;;;;5036980;28;45768;-68
2021/12/27 02:36:06;;;;;;;;;5.50;3.50;;;;;;;;5036154;28;45335;-69
2021/12/27 02:38:33;;;;;;;;;10.25;3.00;;;;;;;;5036601;28;45394;-69
2021/12/27 02:40:59;;;;;;;;;7.25;4.50;;;;;;;;5035886;28;46541;-69
2021/12/27 02:43:26;;;;;;;;;3.75;3.75;;;;;;;;5037092;28;45366;-69
2021/12/27 02:46:11;;;;;;;;;3.25;3.00;;;;;;;;5036445;28;45464;-69
2021/12/27 02:48:41;;;;;;;;;4.50;3.25;;;;;;;;5036555;28;45604;-69
2021/12/27 02:51:07;;;;;;;;;4.25;4.25;;;;;;;;5035864;28;46129;-69
2021/12/27 02:53:33;;;;;;;;;4.00;3.25;;;;;;;;5036176;28;45249;-69
2021/12/27 02:55:59;;;;;;;;;2.75;2.75;;;;;;;;5035538;28;45401;-69
2021/12/27 02:58:25;;;;;;;;;5.50;2.25;;;;;;;;5036742;28;45266;-69
2021/12/27 03:00:52;;;;;;;;;6.75;4.00;;;;;;;;5036924;28;46737;-69
2021/12/27 03:03:18;;;;;;;;;10.75;3.00;;;;;;;;5036392;28;45721;-69
2021/12/27 03:05:44;;;;;;;;;2.50;2.25;;;;;;;;5035695;28;45447;-69
2021/12/27 03:08:14;;;;;;;;;2.50;2.25;;;;;;;;5036417;28;45511;-69
2021/12/27 03:10:39;;;;;;;;;2.25;2.25;;;;;;;;5034312;28;46659;-69
2021/12/27 03:13:05;;;;;;;;;2.00;2.00;;;;;;;;5036252;28;45645;-69
2021/12/27 03:15:30;;;;;;;;;3.00;3.00;;;;;;;;5036507;28;45394;-69
2021/12/27 03:17:55;;;;;;;;;1.75;1.00;;;;;;;;5035680;28;45506;-69
2021/12/27 03:20:23;;;;;;;;;4.00;3.00;;;;;;;;5035953;28;46536;-69
2021/12/27 03:22:48;;;;;;;;;2.00;1.50;;;;;;;;5035993;28;45579;-69
2021/12/27 03:25:16;;;;;;;;;3.50;2.25;;;;;;;;5036176;28;45425;-69
2021/12/27 03:27:41;;;;;;;;;3.00;3.00;;;;;;;;5035670;28;45406;-69
2021/12/27 03:30:11;;;;;;;;;4.25;3.50;;;;;;;;5035597;28;46275;-69
2021/12/27 03:32:37;;;;;;;;;9.75;2.75;;;;;;;;5035298;28;45481;-69
2021/12/27 03:35:10;;;;;;;;;3.50;2.75;;;;;;;;5035795;28;45395;-69
2021/12/27 03:37:36;;;;;;;;;4.50;2.00;;;;;;;;5035303;28;45489;-69
2021/12/27 03:40:02;;;;;;;;;3.50;2.75;;;;;;;;5035154;28;46647;-69
2021/12/27 03:42:27;;;;;;;;;4.00;3.00;;;;;;;;5036264;28;45450;-69
2021/12/27 03:44:53;;;;;;;;;5.00;3.00;;;;;;;;5036191;28;45385;-69
2021/12/27 03:47:18;;;;;;;;;3.33;3.00;;;;;;;;5034412;28;45477;-69
2021/12/27 03:49:43;;;;;;;;;6.33;3.00;;;;;;;;5035409;28;45369;-69
2021/12/27 03:52:08;;;;;;;;;3.67;3.00;;;;;;;;5035391;28;45458;-69
2021/12/27 03:54:33;;;;;;;;;4.33;2.00;;;;;;;;5035621;28;45338;-69
2021/12/27 03:56:59;;;;;;;;;6.33;3.00;;;;;;;;5035545;28;45445;-69
2021/12/27 03:59:37;;;;;;;;;4.33;2.00;;;;;;;;5035520;28;46306;-69
2021/12/27 04:02:03;;;;;;;;;2.00;2.00;;;;;;;;5035283;28;45425;-69
2021/12/27 04:04:29;;;;;;;;;3.00;3.00;;;;;;;;5034688;28;45403;-69
2021/12/27 04:06:54;;;;;;;;;1.67;1.67;;;;;;;;5035716;28;45440;-69
2021/12/27 04:09:19;;;;;;;;;2.67;2.67;;;;;;;;5035159;28;46704;-69
2021/12/27 04:11:45;;;;;;;;;3.75;2.25;;;;;;;;5035123;28;45248;-69
2021/12/27 04:14:10;;;;;;;;;4.25;1.00;;;;;;;;5034546;28;45526;-69
2021/12/27 04:16:35;;;;;;;;;3.00;2.33;;;;;;;;5034745;28;45422;-68
2021/12/27 04:19:00;;;;;;;;;2.67;2.67;;;;;;;;5035715;28;46334;-68
2021/12/27 04:21:25;;;;;;;;;2.00;2.00;;;;;;;;5021924;28;45378;-69
2021/12/27 04:23:51;;;;;;;;;2.00;0.00;;;;;;;;5033773;28;45465;-69
2021/12/27 04:26:16;;;;;;;;;3.00;1.00;;;;;;;;5015810;28;45928;-69
2021/12/27 04:28:41;;;;;;;;;6.33;2.67;;;;;;;;5034897;28;45331;-69
2021/12/27 04:31:06;;;;;;;;;10.00;2.25;;;;;;;;5034500;28;45453;-69
2021/12/27 04:33:32;;;;;;;;;5.00;4.00;;;;;;;;5035418;28;45722;-69
2021/12/27 04:35:57;;;;;;;;;3.33;2.00;;;;;;;;5034512;28;45287;-69
2021/12/27 04:38:22;;;;;;;;;4.33;2.67;;;;;;;;5034477;28;45423;-69
2021/12/27 04:40:49;;;;;;;;;6.67;3.67;;;;;;;;5016403;28;45399;-69
2021/12/27 04:43:15;;;;;;;;;5.00;3.50;;;;;;;;5034612;28;45413;-69
2021/12/27 04:45:41;;;;;;;;;5.00;3.00;;;;;;;;5034901;28;45502;-69
2021/12/27 04:48:07;;;;;;;;;6.00;4.25;;;;;;;;5034397;28;45602;-69
2021/12/27 04:50:32;;;;;;;;;4.33;3.00;;;;;;;;5034021;28;45442;-69
2021/12/27 04:52:57;;;;;;;;;3.25;2.25;;;;;;;;5034285;28;45489;-69
2021/12/27 04:55:24;;;;;;;;;4.00;4.00;;;;;;;;5034931;28;45263;-69
2021/12/27 04:57:49;;;;;;;;;3.75;3.00;;;;;;;;5020958;28;48568;-69
2021/12/27 05:00:14;;;;;;;;;8.75;3.75;;;;;;;;5033613;28;45692;-68
2021/12/27 05:02:40;;;;;;;;;5.00;3.50;;;;;;;;5034232;28;45229;-69
2021/12/27 05:05:05;;;;;;;;;6.25;3.75;;;;;;;;5034671;28;45276;-69
2021/12/27 05:07:30;;;;;;;;;5.00;3.75;;;;;;;;5033649;28;45986;-69
2021/12/27 05:09:56;;;;;;;;;5.50;4.50;;;;;;;;5034285;28;45374;-69
2021/12/27 05:12:21;;;;;;;;;5.75;4.00;;;;;;;;5034829;28;45374;-69
2021/12/27 05:14:46;;;;;;;;;3.67;3.33;;;;;;;;5034396;28;45387;-69
2021/12/27 05:17:11;;;;;;;;;9.33;2.00;;;;;;;;5033688;28;46640;-69
2021/12/27 05:19:36;;;;;;;;;5.67;3.00;;;;;;;;5034290;28;45467;-69
2021/12/27 05:22:02;;;;;;;;;4.67;3.00;;;;;;;;5033975;28;45339;-69
2021/12/27 05:24:28;;;;;;;;;4.50;3.00;;;;;;;;5035283;28;45499;-69
2021/12/27 05:26:53;;;;;;;;;3.75;3.00;;;;;;;;5033215;28;46360;-69
2021/12/27 05:29:19;;;;;;;;;4.50;4.00;;;;;;;;5033736;28;45423;-69
2021/12/27 05:31:44;;;;;;;;;4.75;4.00;;;;;;;;5034226;28;45405;-69
2021/12/27 05:34:11;;;;;;;;;10.50;4.25;;;;;;;;5034169;28;45383;-69
2021/12/27 05:36:36;;;;;;;;;5.00;3.25;;;;;;;;5034454;28;46623;-69
2021/12/27 05:39:01;;;;;;;;;8.33;3.67;;;;;;;;5037618;28;45469;-68
2021/12/27 05:41:26;;;;;;;;;3.50;3.50;;;;;;;;5037413;28;45528;-68
2021/12/27 05:43:52;;;;;;;;;6.67;5.00;;;;;;;;5037273;28;45351;-69
2021/12/27 05:46:17;;;;;;;;;5.67;4.00;;;;;;;;5037725;28;46491;-69
2021/12/27 05:48:42;;;;;;;;;5.33;4.00;;;;;;;;5037617;28;46899;-70
2021/12/27 05:51:07;;;;;;;;;6.33;4.67;;;;;;;;5037347;28;45476;-68
2021/12/27 05:53:32;;;;;;;;;7.67;4.00;;;;;;;;5036703;28;45899;-69
2021/12/27 05:55:58;;;;;;;;;8.25;6.75;;;;;;;;5036905;28;47449;-69
2021/12/27 05:58:25;;;;;;;;;8.25;6.00;;;;;;;;5037214;28;45438;-69
2021/12/27 06:00:50;;;;;;;;;4.25;3.00;;;;;;;;5038101;28;45421;-69
2021/12/27 06:03:15;;;;;;;;;4.00;3.25;;;;;;;;5036643;28;45565;-69
2021/12/27 06:05:41;;;;;;;;;9.67;7.33;;;;;;;;5036461;28;46461;-69
2021/12/27 06:08:06;;;;;;;;;8.75;4.00;;;;;;;;5037030;28;45389;-69
2021/12/27 06:10:31;;;;;;;;;5.25;5.25;;;;;;;;5037566;28;45747;-69
2021/12/27 06:12:56;;;;;;;;;7.00;5.00;;;;;;;;5036776;28;45386;-69
2021/12/27 06:15:22;;;;;;;;;8.00;4.00;;;;;;;;5036792;28;46641;-69
2021/12/27 06:17:47;;;;;;;;;7.67;5.00;;;;;;;;5021917;28;45272;-69
2021/12/27 06:20:14;;;;;;;;;7.67;5.00;;;;;;;;5036587;28;45517;-69
2021/12/27 06:22:41;;;;;;;;;7.00;5.00;;;;;;;;5036632;28;45543;-69
2021/12/27 06:25:07;;;;;;;;;10.25;7.25;;;;;;;;5037272;28;45426;-68
2021/12/27 06:27:33;;;;;;;;;9.50;4.50;;;;;;;;5037258;28;45445;-69
2021/12/27 06:29:59;;;;;;;;;8.50;8.00;;;;;;;;5036529;28;45291;-69
2021/12/27 06:32:24;;;;;;;;;8.00;5.00;;;;;;;;5035967;28;45695;-69
2021/12/27 06:34:49;;;;;;;;;5.75;4.75;;;;;;;;5036568;28;45339;-69
2021/12/27 06:37:14;;;;;;;;;8.33;5.67;;;;;;;;5036055;28;45626;-69
2021/12/27 06:39:40;;;;;;;;;5.00;5.00;;;;;;;;5037360;28;45447;-69
2021/12/27 06:42:05;;;;;;;;;4.33;4.33;;;;;;;;5036593;28;45367;-69
2021/12/27 06:44:31;;;;;;;;;5.00;4.00;;;;;;;;5036627;28;45416;-69
2021/12/27 06:46:59;;;;;;;;;5.00;4.00;;;;;;;;5035227;28;45453;-69
2021/12/27 06:49:24;;;;;;;;;5.00;5.00;;;;;;;;5036257;28;45459;-69
2021/12/27 06:51:49;;;;;;;;;6.33;4.00;;;;;;;;5037302;28;45392;-69
2021/12/27 06:54:15;;;;;;;;;8.33;4.00;;;;;;;;5035817;28;45396;-69
2021/12/27 06:56:40;;;;;;;;;7.00;5.00;;;;;;;;5036012;28;45417;-69
2021/12/27 06:59:05;;;;;;;;;5.00;4.00;;;;;;;;5036817;28;45393;-69
2021/12/27 07:01:30;;;;;;;;;10.25;5.00;;;;;;;;5035591;28;45560;-69
2021/12/27 07:03:56;;;;;;;;;13.00;6.33;;;;;;;;5036235;28;46304;-69
2021/12/27 07:06:22;;;;;;;;;4.67;4.00;;;;;;;;5022792;28;45790;-69
2021/12/27 07:08:47;;;;;;;;;9.75;4.00;;;;;;;;5035968;28;45829;-69
2021/12/27 07:11:13;;;;;;;;;9.75;7.00;;;;;;;;5035636;28;45589;-69
2021/12/27 07:13:38;;;;;;;;;8.50;4.00;;;;;;;;5036275;28;45405;-69
2021/12/27 07:16:03;;;;;;;;;3.33;3.33;;;;;;;;5035658;28;45416;-69
2021/12/27 07:18:29;;;;;;;;;4.25;4.25;;;;;;;;5036597;28;45404;-69
2021/12/27 07:20:55;;;;;;;;;6.67;4.67;;;;;;;;5021507;28;47314;-69
2021/12/27 07:23:20;;;;;;;;;4.00;3.50;;;;;;;;5035413;28;47247;-69
2021/12/27 07:25:45;;;;;;;;;4.00;2.67;;;;;;;;5036003;28;45447;-69
2021/12/27 07:28:11;;;;;;;;;2.50;2.50;;;;;;;;5035743;28;45446;-69
2021/12/27 07:30:36;;;;;;;;;7.67;4.00;;;;;;;;5036097;28;45594;-69
2021/12/27 07:33:01;;;;;;;;;1.67;1.67;;;;;;;;5036021;28;45468;-69
2021/12/27 07:35:27;;;;;;;;;5.00;4.00;;;;;;;;5035566;28;45370;-68
2021/12/27 07:37:52;;;;;;;;;3.50;3.00;;;;;;;;5035537;28;45422;-69
2021/12/27 07:40:18;;;;;;;;;2.00;2.00;;;;;;;;5035897;28;45558;-69
2021/12/27 07:42:43;;;;;;;;;5.25;4.00;;;;;;;;5036245;28;45780;-69
2021/12/27 07:45:08;;;;;;;;;7.67;4.00;;;;;;;;5035270;28;45544;-69
2021/12/27 07:47:34;;;;;;;;;8.25;3.50;;;;;;;;5034882;28;45456;-69
2021/12/27 07:49:59;;;;;;;;;5.00;3.00;;;;;;;;5035457;28;45385;-68
2021/12/27 07:52:24;;;;;;;;;4.33;3.00;;;;;;;;5035872;28;46628;-69
2021/12/27 07:54:49;;;;;;;;;4.00;4.00;;;;;;;;5035591;28;45314;-69
2021/12/27 07:57:14;;;;;;;;;4.67;4.33;;;;;;;;5036409;28;45296;-70
2021/12/27 07:59:41;;;;;;;;;6.33;3.67;;;;;;;;5043354;28;45504;-69
2021/12/27 08:02:06;;;;;;;;;3.00;3.00;;;;;;;;5038375;28;46190;-69
2021/12/27 08:04:32;;;;;;;;;6.00;4.00;;;;;;;;5034274;28;45462;-69
2021/12/27 08:06:57;;;;;;;;;7.00;5.33;;;;;;;;5034854;28;45513;-68
2021/12/27 08:09:24;;;;;;;;;3.33;3.33;;;;;;;;5034931;28;46286;-68
2021/12/27 08:11:50;;;;;;;;;3.00;3.00;;;;;;;;5033575;28;45473;-68
2021/12/27 08:14:15;;;;;;;;;4.33;4.33;;;;;;;;5034839;28;45414;-68
2021/12/27 08:16:40;;;;;;;;;6.67;4.00;;;;;;;;5034053;28;45501;-68
2021/12/27 08:19:05;;;;;;;;;3.00;2.00;;;;;;;;5033407;28;45596;-68
2021/12/27 08:21:32;;;;;;;;;3.50;3.00;;;;;;;;5034830;28;45540;-69
2021/12/27 08:23:57;;;;;;;;;5.25;4.00;;;;;;;;5034634;28;45812;-69
2021/12/27 08:26:23;;;;;;;;;2.00;2.00;;;;;;;;5033922;28;45493;-69
2021/12/27 08:28:49;;;;;;;;;3.67;3.67;;;;;;;;5033544;28;45454;-69
2021/12/27 08:31:15;;;;;;;;;4.00;2.00;;;;;;;;5033018;28;46164;-68
2021/12/27 08:33:40;;;;;;;;;4.00;3.67;;;;;;;;5036871;28;45454;-68
2021/12/27 08:36:05;;;;;;;;;4.00;4.00;;;;;;;;5036570;28;45528;-69
2021/12/27 08:38:31;;;;;;;;;4.67;3.00;;;;;;;;5034029;28;45502;-68
2021/12/27 08:40:56;;;;;;;;;4.75;3.00;;;;;;;;5034317;28;46538;-68
2021/12/27 08:43:21;;;;;;;;;7.67;3.00;;;;;;;;5034352;28;49400;-69
2021/12/27 08:45:46;;;;;;;;;4.33;4.00;;;;;;;;5034890;28;45437;-69
2021/12/27 08:48:12;;;;;;;;;5.67;5.33;;;;;;;;5034332;28;45517;-69
2021/12/27 08:50:37;;;;;;;;;4.00;3.00;;;;;;;;5033942;28;45560;-69
2021/12/27 08:53:03;;;;;;;;;3.50;3.00;;;;;;;;5033842;28;45339;-68
2021/12/27 08:55:28;;;;;;;;;5.00;3.00;;;;;;;;5034096;28;45430;-68
2021/12/27 08:57:53;;;;;;;;;3.67;3.67;;;;;;;;5034218;28;45541;-69
2021/12/27 09:00:19;;;;;;;;;7.67;5.33;;;;;;;;5033299;28;46029;-68
2021/12/27 09:02:45;;;;;;;;;3.75;3.25;;;;;;;;5033179;28;45473;-69
2021/12/27 09:05:10;;;;;;;;;4.25;3.50;;;;;;;;5033665;28;45476;-69
2021/12/27 09:07:35;;;;;;;;;5.33;4.00;;;;;;;;5034618;28;45263;-69
2021/12/27 09:10:00;;;;;;;;;4.25;3.00;;;;;;;;5033525;28;45535;-69
2021/12/27 09:12:26;;;;;;;;;3.00;3.00;;;;;;;;5033084;28;45447;-68
2021/12/27 09:14:51;;;;;;;;;4.00;4.00;;;;;;;;5038474;28;45564;-69
2021/12/27 09:17:17;;;;;;;;;7.33;2.00;;;;;;;;5040578;28;45279;-69
2021/12/27 09:19:43;;;;;;;;;3.25;3.00;;;;;;;;5033896;28;45449;-68
2021/12/27 09:22:10;;;;;;;;;6.00;3.00;;;;;;;;5034208;28;45354;-69
2021/12/27 09:24:35;;;;;;;;;3.00;3.00;;;;;;;;5034846;28;45488;-68
2021/12/27 09:27:01;;;;;;;;;5.33;3.67;;;;;;;;5033303;28;45452;-69
2021/12/27 09:29:26;;;;;;;;;4.67;2.00;;;;;;;;5032852;28;46556;-69
2021/12/27 09:31:52;;;;;;;;;14.00;11.00;;;;;;;;5034288;28;45571;-71
2021/12/27 09:34:17;;;;;;;;;6.00;4.00;;;;;;;;5034136;28;45890;-69
2021/12/27 09:36:42;;;;;;;;;4.75;2.00;;;;;;;;5035306;28;47138;-69
2021/12/27 09:39:08;;;;;;;;;3.33;3.00;;;;;;;;5034533;28;46768;-70
2021/12/27 09:41:33;;;;;;;;;8.50;3.75;;;;;;;;5032985;28;45488;-71
2021/12/27 09:43:58;;;;;;;;;5.67;3.00;;;;;;;;5034213;28;45391;-70
2021/12/27 09:46:23;;;;;;;;;2.00;2.00;;;;;;;;5033283;28;45386;-69
2021/12/27 09:48:49;;;;;;;;;6.00;3.00;;;;;;;;5033339;28;46590;-69
2021/12/27 09:51:16;;;;;;;;;4.50;3.00;;;;;;;;5023267;28;45683;-70
2021/12/27 09:53:42;;;;;;;;;3.00;2.75;;;;;;;;5033282;28;45344;-71
2021/12/27 09:56:08;;;;;;;;;4.75;3.25;;;;;;;;5033228;28;45470;-70
2021/12/27 09:58:33;;;;;;;;;2.00;2.00;;;;;;;;5032454;28;46724;-69
2021/12/27 10:01:02;;;;;;;;;2.67;1.33;;;;;;;;5032594;28;45347;-71
2021/12/27 10:03:28;;;;;;;;;2.00;2.00;;;;;;;;5033749;28;45538;-70
2021/12/27 10:05:53;;;;;;;;;3.75;2.50;;;;;;;;5033654;28;45328;-70
2021/12/27 10:08:18;;;;;;;;;4.00;4.00;;;;;;;;5032218;28;45550;-70
2021/12/27 10:10:45;;;;;;;;;3.00;2.33;;;;;;;;5033194;28;45564;-68
2021/12/27 10:13:11;;;;;;;;;3.75;3.75;;;;;;;;5033468;28;45452;-69
2021/12/27 10:15:38;;;;;;;;;3.00;3.00;;;;;;;;5018657;28;45518;-71
2021/12/27 10:18:11;;;;;;;;;8.00;3.25;;;;;;;;5032902;28;45525;-72
2021/12/27 10:20:36;;;;;;;;;3.75;2.25;;;;;;;;5032247;28;45481;-71
2021/12/27 10:23:01;;;;;;;;;2.33;2.33;;;;;;;;5032838;28;45307;-71
2021/12/27 10:25:27;;;;;;;;;5.00;4.00;;;;;;;;5036942;28;45425;-69
2021/12/27 10:27:54;;;;;;;;;6.00;4.00;;;;;;;;5036818;28;45584;-70
2021/12/27 10:30:21;;;;;;;;;4.50;2.50;;;;;;;;5021890;28;45880;-70
2021/12/27 10:33:07;;;;;;;;;2.00;2.00;;;;;;;;5035657;28;45392;-70
2021/12/27 10:35:42;;;;;;;;;4.00;4.00;;;;;;;;5036455;28;45540;-70
2021/12/27 10:38:36;;;;;;;;;1.00;1.00;;;;;;;;5036676;28;46413;-70
2021/12/27 10:41:09;;;;;;;;;2.75;2.00;;;;;;;;5031507;28;45671;-70
2021/12/27 10:43:42;;;;;;;;;2.50;2.50;;;;;;;;5035887;28;45450;-69
2021/12/27 10:46:12;;;;;;;;;1.25;1.25;;;;;;;;5035425;28;45442;-70
2021/12/27 10:48:39;;;;;;;;;4.00;2.00;;;;;;;;5035227;28;47087;-69
2021/12/27 10:51:04;;;;;;;;;2.00;2.00;;;;;;;;5034370;28;45767;-70
2021/12/27 10:53:46;;;;;;;;;2.00;2.00;;;;;;;;5022386;28;45390;-69
2021/12/27 10:56:12;;;;;;;;;2.75;2.75;;;;;;;;5035001;28;45688;-70
2021/12/27 10:58:38;;;;;;;;;13.00;10.00;;;;;;;;5034868;28;46243;-70
2021/12/27 11:01:03;;;;;;;;;3.50;2.00;;;;;;;;5035683;28;46042;-70
2021/12/27 11:03:37;;;;;;;;;1.67;1.67;;;;;;;;5037103;28;45337;-69
2021/12/27 11:06:03;;;;;;;;;2.00;1.00;;;;;;;;5034812;28;45281;-70
2021/12/27 11:08:29;;;;;;;;;2.25;2.25;;;;;;;;5037411;28;45591;-70
2021/12/27 11:10:55;;;;;;;;;57.25;46.50;;;;;;;;5035464;28;45364;-70
2021/12/27 11:13:20;;;;;;;;;36.25;34.25;;;;;;;;5035744;28;45378;-69
2021/12/27 11:15:45;;;;;;;;;39.75;33.75;;;;;;;;5036430;28;45409;-70
2021/12/27 11:18:12;;;;;;;;;49.00;35.33;;;;;;;;5034954;28;45453;-71
2021/12/27 11:20:41;;;;;;;;;8.75;8.00;;;;;;;;5020017;28;45864;-70
2021/12/27 11:23:06;;;;;;;;;14.25;13.75;;;;;;;;5027627;28;45884;-70
2021/12/27 11:25:34;;;;;;;;;10.67;8.67;;;;;;;;5034533;28;45489;-69
2021/12/27 11:28:00;;;;;;;;;13.00;13.00;;;;;;;;5034795;28;45737;-69
2021/12/27 11:30:28;;;;;;;;;8.00;6.25;;;;;;;;5035443;28;45792;-68
2021/12/27 11:33:12;;;;;;;;;14.00;13.50;;;;;;;;5035015;28;45544;-68
2021/12/27 11:35:58;;;;;;;;;98.00;72.25;;;;;;;;5034600;28;45431;-68
2021/12/27 11:38:33;;;;;;;;;65.50;50.75;;;;;;;;5033018;28;45432;-68
2021/12/27 11:41:00;;;;;;;;;28.50;26.00;;;;;;;;5034874;28;45577;-69
2021/12/27 11:43:45;;;;;;;;;65.00;52.75;;;;;;;;5033777;28;45494;-69
2021/12/27 11:46:10;;;;;;;;;20.00;14.25;;;;;;;;5034930;28;45637;-70
2021/12/27 11:48:43;;;;;;;;;59.00;49.00;;;;;;;;5035718;28;46234;-69
2021/12/27 11:51:09;;;;;;;;;17.25;14.00;;;;;;;;5034217;28;45469;-74
2021/12/27 11:53:41;;;;;;;;;16.25;13.00;;;;;;;;5034594;28;45397;-70
2021/12/27 11:56:10;;;;;;;;;166.00;148.25;;;;;;;;5034666;28;45489;-69
2021/12/27 11:58:40;;;;;;;;;162.00;144.50;;;;;;;;5034369;28;46657;-69
2021/12/27 12:01:25;;;;;;;;;147.50;136.00;;;;;;;;5034159;28;46214;-69
2021/12/27 12:03:54;;;;;;;;;208.25;184.75;;;;;;;;5035114;28;45690;-71
2021/12/27 12:06:34;;;;;;;;;262.25;227.00;;;;;;;;5034160;28;45559;-69
2021/12/27 12:09:00;;;;;;;;;158.75;137.75;;;;;;;;5037922;28;46467;-69
2021/12/27 12:11:30;;;;;;;;;136.50;110.50;;;;;;;;5034002;28;45711;-70
2021/12/27 12:13:57;;;;;;;;;49.50;39.00;;;;;;;;5034332;28;45794;-70
2021/12/27 12:16:23;;;;;;;;;228.00;188.00;;;;;;;;5034686;28;45509;-70
2021/12/27 12:18:51;;;;;;;;;129.25;108.50;;;;;;;;5030739;28;45331;-69
2021/12/27 12:21:31;;;;;;;;;131.75;111.00;;;;;;;;5035310;28;45957;-69
2021/12/27 12:23:58;;;;;;;;;19.75;13.50;;;;;;;;5037095;28;45337;-69
2021/12/27 12:26:23;;;;;;;;;121.00;101.50;;;;;;;;5034700;28;45398;-69
2021/12/27 12:28:57;;;;;;;;;84.00;62.33;;;;;;;;5034340;28;46449;-69
2021/12/27 12:31:30;;;;;;;;;43.75;32.25;;;;;;;;5033973;28;45848;-69
2021/12/27 12:34:06;;;;;;;;;65.00;50.50;;;;;;;;5031053;28;45256;-70
2021/12/27 12:36:31;;;;;;;;;48.50;35.25;;;;;;;;5033931;28;45377;-68
2021/12/27 12:38:58;;;;;;;;;49.00;36.67;;;;;;;;5034393;28;45524;-69
2021/12/27 12:41:24;;;;;;;;;83.50;61.00;;;;;;;;5033682;28;45989;-68
2021/12/27 12:43:51;;;;;;;;;86.50;68.00;;;;;;;;5016666;28;45380;-69
2021/12/27 12:46:25;;;;;;;;;99.75;81.25;;;;;;;;5033587;28;45645;-69
2021/12/27 12:48:57;;;;;;;;;60.50;48.75;;;;;;;;5030667;28;45477;-71
2021/12/27 12:51:30;;;;;;;;;32.00;26.75;;;;;;;;5033368;28;45263;-70
2021/12/27 12:53:55;;;;;;;;;13.75;11.75;;;;;;;;5040205;28;45738;-70
2021/12/27 12:56:27;;;;;;;;;12.67;10.33;;;;;;;;5040559;28;45438;-70
2021/12/27 12:58:52;;;;;;;;;83.50;71.00;;;;;;;;5045400;28;45433;-71
2021/12/27 13:01:17;;;;;;;;;23.67;20.33;;;;;;;;5032969;28;45904;-68
2021/12/27 13:03:44;;;;;;;;;60.67;48.00;;;;;;;;5034448;28;45340;-69
2021/12/27 13:06:10;;;;;;;;;56.00;45.25;;;;;;;;5021769;28;45524;-68
2021/12/27 13:08:35;;;;;;;;;22.33;19.67;;;;;;;;5034094;28;46647;-68
2021/12/27 13:11:02;;;;;;;;;13.33;9.00;;;;;;;;5033506;28;45472;-68
2021/12/27 13:13:27;;;;;;;;;13.00;11.25;;;;;;;;5033935;28;45446;-68
2021/12/27 13:15:52;;;;;;;;;7.75;7.75;;;;;;;;5034057;28;45379;-68
2021/12/27 13:18:19;;;;;;;;;4.00;2.00;;;;;;;;5034023;28;46476;-68
2021/12/27 13:21:11;;;;;;;;;8.00;7.75;;;;;;;;5034168;28;45777;-68
2021/12/27 13:23:38;;;;;;;;;5.75;3.00;;;;;;;;5030614;28;45451;-68
2021/12/27 13:26:11;;;;;;;;;3.00;2.00;;;;;;;;5033617;28;45485;-68
2021/12/27 13:28:40;;;;;;;;;2.50;2.00;;;;;;;;5019936;28;46609;-68
2021/12/27 13:31:06;;;;;;;;;4.50;1.75;;;;;;;;5034179;28;46041;-68
2021/12/27 13:33:45;;;;;;;;;2.00;1.00;;;;;;;;5034730;28;45643;-68
2021/12/27 13:36:15;;;;;;;;;2.75;2.75;;;;;;;;5041069;28;45361;-68
2021/12/27 13:38:43;;;;;;;;;2.00;2.00;;;;;;;;5036752;28;46151;-68
2021/12/27 13:41:10;;;;;;;;;4.25;2.75;;;;;;;;5032996;28;45623;-68
2021/12/27 13:43:46;;;;;;;;;2.00;1.00;;;;;;;;5033400;28;45530;-68
2021/12/27 13:46:13;;;;;;;;;4.00;2.75;;;;;;;;5036093;28;45340;-68
2021/12/27 13:48:39;;;;;;;;;4.00;2.00;;;;;;;;5043251;28;46789;-73
2021/12/27 13:51:05;;;;;;;;;2.75;2.50;;;;;;;;5033413;28;45382;-68
2021/12/27 13:53:30;;;;;;;;;3.75;1.75;;;;;;;;5032842;28;45458;-70
2021/12/27 13:56:06;;;;;;;;;4.00;3.00;;;;;;;;5035893;28;45465;-68
2021/12/27 13:58:36;;;;;;;;;3.50;2.25;;;;;;;;5029786;28;47551;-68
2021/12/27 14:01:08;;;;;;;;;4.00;2.00;;;;;;;;5034889;28;45509;-68
2021/12/27 14:03:33;;;;;;;;;3.00;3.00;;;;;;;;5034723;28;45420;-68
2021/12/27 14:06:00;;;;;;;;;4.00;2.00;;;;;;;;5040072;28;45670;-68
2021/12/27 14:08:27;;;;;;;;;2.50;2.50;;;;;;;;5041831;28;45539;-68
2021/12/27 14:10:59;;;;;;;;;3.00;2.00;;;;;;;;5037158;28;45508;-68
2021/12/27 14:13:24;;;;;;;;;4.00;3.75;;;;;;;;5033619;28;45580;-68
2021/12/27 14:15:49;;;;;;;;;3.33;2.00;;;;;;;;5042546;28;45397;-68
2021/12/27 14:18:15;;;;;;;;;4.67;3.00;;;;;;;;5036015;28;45676;-68
2021/12/27 14:20:40;;;;;;;;;5.25;2.50;;;;;;;;5036134;28;45435;-68
2021/12/27 14:23:10;;;;;;;;;6.00;3.00;;;;;;;;5037001;28;45728;-68
2021/12/27 14:25:35;;;;;;;;;5.75;3.75;;;;;;;;5037411;28;45567;-68
2021/12/27 14:28:00;;;;;;;;;9.75;3.00;;;;;;;;5035811;28;45741;-68
2021/12/27 14:30:35;;;;;;;;;5.75;2.75;;;;;;;;5036156;28;45537;-68
2021/12/27 14:33:02;;;;;;;;;6.75;2.50;;;;;;;;5035204;28;45442;-68
2021/12/27 14:35:32;;;;;;;;;5.25;3.75;;;;;;;;5036239;28;45562;-70
2021/12/27 14:37:59;;;;;;;;;8.75;3.00;;;;;;;;5034721;28;46469;-68
2021/12/27 14:40:24;;;;;;;;;4.50;3.00;;;;;;;;5035693;28;45673;-68